sensor_id;sensor_type;location;lat;lon;timestamp;pressure;altitude;pressure_sealevel;temperature;humidity
7333;BME280;3707;43.618;25.342;2024-03-23T00:55:36;100276.34;;;7.76;100.00
7333;BME280;3707;43.618;25.342;2024-03-23T00:58:03;100238.03;;;7.60;99.96
7333;BME280;3707;43.618;25.342;2024-03-23T01:00:28;100270.31;;;8.05;94.10
7333;BME280;3707;43.618;25.342;2024-03-23T01:02:55;100272.25;;;8.14;92.69
7333;BME280;3707;43.618;25.342;2024-03-23T01:05:21;100272.78;;;8.32;90.42
7333;BME280;3707;43.618;25.342;2024-03-23T01:07:48;100280.00;;;8.43;88.54
7333;BME280;3707;43.618;25.342;2024-03-23T01:10:15;100275.78;;;8.47;88.83
7333;BME280;3707;43.618;25.342;2024-03-23T01:12:42;100271.44;;;8.46;88.12
7333;BME280;3707;43.618;25.342;2024-03-23T01:15:08;100273.16;;;8.45;87.50
7333;BME280;3707;43.618;25.342;2024-03-23T01:17:35;100269.91;;;8.53;86.98
7333;BME280;3707;43.618;25.342;2024-03-23T01:20:01;100271.66;;;8.54;86.81
7333;BME280;3707;43.618;25.342;2024-03-23T01:22:28;100263.06;;;8.55;86.11
7333;BME280;3707;43.618;25.342;2024-03-23T01:24:54;100252.81;;;8.58;85.06
7333;BME280;3707;43.618;25.342;2024-03-23T01:27:22;100262.13;;;8.53;85.45
7333;BME280;3707;43.618;25.342;2024-03-23T01:29:48;100237.78;;;8.43;87.96
7333;BME280;3707;43.618;25.342;2024-03-23T01:32:16;100266.47;;;8.52;87.88
7333;BME280;3707;43.618;25.342;2024-03-23T01:34:42;100251.44;;;8.37;90.34
7333;BME280;3707;43.618;25.342;2024-03-23T01:37:08;100271.50;;;8.48;95.49
7333;BME280;3707;43.618;25.342;2024-03-23T01:39:34;100260.00;;;8.36;98.74
7333;BME280;3707;43.618;25.342;2024-03-23T01:42:01;100273.31;;;8.20;100.00
7333;BME280;3707;43.618;25.342;2024-03-23T01:44:29;100205.84;;;7.77;100.00
7333;BME280;3707;43.618;25.342;2024-03-23T01:46:56;100252.03;;;7.97;100.00
7333;BME280;3707;43.618;25.342;2024-03-23T01:49:21;100252.53;;;7.86;100.00
7333;BME280;3707;43.618;25.342;2024-03-23T01:51:48;100202.28;;;7.43;100.00
7333;BME280;3707;43.618;25.342;2024-03-23T01:54:15;100198.59;;;7.35;100.00
7333;BME280;3707;43.618;25.342;2024-03-23T01:56:42;100253.94;;;7.45;100.00
7333;BME280;3707;43.618;25.342;2024-03-23T01:59:08;100244.19;;;7.36;100.00
7333;BME280;3707;43.618;25.342;2024-03-23T02:01:36;100213.34;;;7.11;100.00
7333;BME280;3707;43.618;25.342;2024-03-23T02:04:02;100235.53;;;7.06;100.00
7333;BME280;3707;43.618;25.342;2024-03-23T02:06:28;100250.22;;;7.09;100.00
7333;BME280;3707;43.618;25.342;2024-03-23T02:08:54;100246.94;;;7.14;100.00
7333;BME280;3707;43.618;25.342;2024-03-23T02:11:21;100245.22;;;7.13;100.00
7333;BME280;3707;43.618;25.342;2024-03-23T02:13:47;100249.59;;;7.17;100.00
7333;BME280;3707;43.618;25.342;2024-03-23T02:16:14;100223.28;;;6.99;100.00
7333;BME280;3707;43.618;25.342;2024-03-23T02:18:41;100240.91;;;7.14;100.00
7333;BME280;3707;43.618;25.342;2024-03-23T02:21:08;100243.38;;;7.09;100.00
7333;BME280;3707;43.618;25.342;2024-03-23T02:23:35;100252.97;;;7.15;100.00
7333;BME280;3707;43.618;25.342;2024-03-23T02:26:02;100251.00;;;7.06;100.00
7333;BME280;3707;43.618;25.342;2024-03-23T02:28:28;100264.25;;;7.18;100.00
7333;BME280;3707;43.618;25.342;2024-03-23T02:30:55;100271.28;;;7.22;100.00
7333;BME280;3707;43.618;25.342;2024-03-23T02:33:21;100266.06;;;7.21;100.00
7333;BME280;3707;43.618;25.342;2024-03-23T02:35:49;100247.94;;;6.91;100.00
7333;BME280;3707;43.618;25.342;2024-03-23T02:38:15;100259.91;;;6.64;100.00
7333;BME280;3707;43.618;25.342;2024-03-23T02:40:43;100264.13;;;6.62;100.00
7333;BME280;3707;43.618;25.342;2024-03-23T02:43:08;100267.13;;;6.25;100.00
7333;BME280;3707;43.618;25.342;2024-03-23T02:45:35;100247.66;;;6.08;100.00
7333;BME280;3707;43.618;25.342;2024-03-23T02:48:01;100247.09;;;5.92;100.00
7333;BME280;3707;43.618;25.342;2024-03-23T02:50:29;100205.69;;;5.63;100.00
7333;BME280;3707;43.618;25.342;2024-03-23T02:52:55;100266.84;;;5.92;100.00
7333;BME280;3707;43.618;25.342;2024-03-23T02:55:21;100232.56;;;5.71;100.00
7333;BME280;3707;43.618;25.342;2024-03-23T02:57:49;100265.84;;;5.88;100.00
7333;BME280;3707;43.618;25.342;2024-03-23T03:00:16;100260.44;;;5.82;100.00
7333;BME280;3707;43.618;25.342;2024-03-23T03:02:41;100261.38;;;5.84;100.00
7333;BME280;3707;43.618;25.342;2024-03-23T03:05:08;100243.53;;;5.89;100.00
7333;BME280;3707;43.618;25.342;2024-03-23T03:07:34;100240.22;;;5.91;100.00
7333;BME280;3707;43.618;25.342;2024-03-23T03:10:03;100233.50;;;5.95;100.00
7333;BME280;3707;43.618;25.342;2024-03-23T03:12:30;100229.38;;;6.00;100.00
7333;BME280;3707;43.618;25.342;2024-03-23T03:14:59;100241.72;;;6.10;100.00
7333;BME280;3707;43.618;25.342;2024-03-23T03:17:24;100127.91;;;5.46;100.00
7333;BME280;3707;43.618;25.342;2024-03-23T03:19:51;100252.09;;;6.12;100.00
7333;BME280;3707;43.618;25.342;2024-03-23T03:22:21;100246.88;;;6.10;100.00
7333;BME280;3707;43.618;25.342;2024-03-23T03:24:47;100244.44;;;6.13;100.00
7333;BME280;3707;43.618;25.342;2024-03-23T03:27:13;100246.28;;;6.17;100.00
7333;BME280;3707;43.618;25.342;2024-03-23T03:29:40;100246.25;;;6.16;100.00
7333;BME280;3707;43.618;25.342;2024-03-23T03:32:07;100245.19;;;6.11;100.00
7333;BME280;3707;43.618;25.342;2024-03-23T03:34:34;100216.28;;;5.94;100.00
7333;BME280;3707;43.618;25.342;2024-03-23T03:37:00;100205.09;;;5.92;100.00
7333;BME280;3707;43.618;25.342;2024-03-23T03:39:26;100248.97;;;6.20;100.00
7333;BME280;3707;43.618;25.342;2024-03-23T03:41:52;100250.78;;;6.23;100.00
7333;BME280;3707;43.618;25.342;2024-03-23T03:44:19;100249.91;;;6.22;100.00
7333;BME280;3707;43.618;25.342;2024-03-23T03:46:45;100238.78;;;6.23;100.00
7333;BME280;3707;43.618;25.342;2024-03-23T03:49:13;100245.00;;;6.30;100.00
7333;BME280;3707;43.618;25.342;2024-03-23T03:51:39;100203.00;;;6.06;100.00
7333;BME280;3707;43.618;25.342;2024-03-23T03:54:06;100239.91;;;6.31;100.00
7333;BME280;3707;43.618;25.342;2024-03-23T03:56:31;100238.06;;;6.27;100.00
7333;BME280;3707;43.618;25.342;2024-03-23T03:58:58;100242.47;;;6.31;100.00
7333;BME280;3707;43.618;25.342;2024-03-23T04:01:24;100226.78;;;6.24;100.00
7333;BME280;3707;43.618;25.342;2024-03-23T04:03:51;100236.00;;;6.42;100.00
7333;BME280;3707;43.618;25.342;2024-03-23T04:06:20;100234.75;;;6.57;100.00
7333;BME280;3707;43.618;25.342;2024-03-23T04:08:47;100231.16;;;6.52;100.00
7333;BME280;3707;43.618;25.342;2024-03-23T04:11:13;100223.69;;;6.59;100.00
7333;BME280;3707;43.618;25.342;2024-03-23T04:13:39;100229.03;;;6.65;100.00
7333;BME280;3707;43.618;25.342;2024-03-23T04:16:07;100216.22;;;6.67;100.00
7333;BME280;3707;43.618;25.342;2024-03-23T04:18:34;100229.41;;;6.76;100.00
7333;BME280;3707;43.618;25.342;2024-03-23T04:21:00;100236.84;;;6.67;100.00
7333;BME280;3707;43.618;25.342;2024-03-23T04:23:28;100234.34;;;6.70;100.00
7333;BME280;3707;43.618;25.342;2024-03-23T04:25:54;100131.84;;;6.08;100.00
7333;BME280;3707;43.618;25.342;2024-03-23T04:28:21;100227.28;;;6.64;100.00
7333;BME280;3707;43.618;25.342;2024-03-23T04:30:46;100231.53;;;6.62;100.00
7333;BME280;3707;43.618;25.342;2024-03-23T04:33:13;100223.81;;;6.62;100.00
7333;BME280;3707;43.618;25.342;2024-03-23T04:35:39;100202.88;;;6.53;100.00
7333;BME280;3707;43.618;25.342;2024-03-23T04:38:06;100229.34;;;6.74;100.00
7333;BME280;3707;43.618;25.342;2024-03-23T04:40:34;100230.63;;;6.87;100.00
7333;BME280;3707;43.618;25.342;2024-03-23T04:43:01;100227.41;;;6.94;100.00
7333;BME280;3707;43.618;25.342;2024-03-23T04:45:29;100225.97;;;7.04;100.00
7333;BME280;3707;43.618;25.342;2024-03-23T04:47:56;100230.97;;;7.26;100.00
7333;BME280;3707;43.618;25.342;2024-03-23T04:50:23;100231.13;;;7.59;100.00
7333;BME280;3707;43.618;25.342;2024-03-23T04:52:50;100235.56;;;8.25;100.00
7333;BME280;3707;43.618;25.342;2024-03-23T04:55:17;100238.16;;;8.91;100.00
7333;BME280;3707;43.618;25.342;2024-03-23T04:57:45;100235.72;;;9.34;99.76
7333;BME280;3707;43.618;25.342;2024-03-23T05:00:12;100238.44;;;9.81;97.10
7333;BME280;3707;43.618;25.342;2024-03-23T05:02:44;100247.19;;;10.31;92.74
7333;BME280;3707;43.618;25.342;2024-03-23T05:05:10;100219.03;;;10.48;86.96
7333;BME280;3707;43.618;25.342;2024-03-23T05:07:37;100244.84;;;10.92;84.16
7333;BME280;3707;43.618;25.342;2024-03-23T05:10:03;100237.66;;;10.76;87.79
7333;BME280;3707;43.618;25.342;2024-03-23T05:12:30;100246.22;;;10.24;88.80
7333;BME280;3707;43.618;25.342;2024-03-23T05:14:58;100230.75;;;9.85;92.36
7333;BME280;3707;43.618;25.342;2024-03-23T05:17:25;100236.19;;;9.56;93.43
7333;BME280;3707;43.618;25.342;2024-03-23T05:19:50;100211.78;;;9.44;100.00
7333;BME280;3707;43.618;25.342;2024-03-23T05:22:17;100232.25;;;9.35;96.05
7333;BME280;3707;43.618;25.342;2024-03-23T05:24:45;100225.28;;;9.31;93.26
7333;BME280;3707;43.618;25.342;2024-03-23T05:27:12;100220.75;;;9.21;91.99
7333;BME280;3707;43.618;25.342;2024-03-23T05:29:37;100237.19;;;9.23;94.66
7333;BME280;3707;43.618;25.342;2024-03-23T05:32:06;100240.78;;;9.31;95.76
7333;BME280;3707;43.618;25.342;2024-03-23T05:34:32;100244.31;;;9.35;95.56
7333;BME280;3707;43.618;25.342;2024-03-23T05:36:59;100234.84;;;9.35;98.22
7333;BME280;3707;43.618;25.342;2024-03-23T05:39:25;100234.59;;;9.23;100.00
7333;BME280;3707;43.618;25.342;2024-03-23T05:41:51;100221.19;;;9.02;100.00
7333;BME280;3707;43.618;25.342;2024-03-23T05:44:17;100232.72;;;9.16;100.00
7333;BME280;3707;43.618;25.342;2024-03-23T05:46:44;100238.78;;;9.18;100.00
7333;BME280;3707;43.618;25.342;2024-03-23T05:49:15;100237.06;;;9.19;100.00
7333;BME280;3707;43.618;25.342;2024-03-23T05:51:42;100239.59;;;9.17;100.00
7333;BME280;3707;43.618;25.342;2024-03-23T05:54:08;100237.88;;;9.16;100.00
7333;BME280;3707;43.618;25.342;2024-03-23T05:56:35;100227.13;;;9.00;100.00
7333;BME280;3707;43.618;25.342;2024-03-23T05:59:00;100228.31;;;9.12;100.00
7333;BME280;3707;43.618;25.342;2024-03-23T06:01:28;100245.66;;;9.16;100.00
7333;BME280;3707;43.618;25.342;2024-03-23T06:03:56;100225.47;;;8.66;100.00
7333;BME280;3707;43.618;25.342;2024-03-23T06:06:24;100236.44;;;8.26;100.00
7333;BME280;3707;43.618;25.342;2024-03-23T06:08:50;100248.78;;;8.36;100.00
7333;BME280;3707;43.618;25.342;2024-03-23T06:11:17;100245.00;;;8.56;100.00
7333;BME280;3707;43.618;25.342;2024-03-23T06:13:42;100236.81;;;8.72;100.00
7333;BME280;3707;43.618;25.342;2024-03-23T06:16:09;100238.78;;;8.81;100.00
7333;BME280;3707;43.618;25.342;2024-03-23T06:18:35;100236.13;;;8.79;100.00
7333;BME280;3707;43.618;25.342;2024-03-23T06:21:02;100115.09;;;8.27;100.00
7333;BME280;3707;43.618;25.342;2024-03-23T06:23:30;100232.84;;;9.22;100.00
7333;BME280;3707;43.618;25.342;2024-03-23T06:25:57;100230.78;;;9.45;100.00
7333;BME280;3707;43.618;25.342;2024-03-23T06:28:23;100177.97;;;9.37;100.00
7333;BME280;3707;43.618;25.342;2024-03-23T06:30:49;100229.50;;;9.67;100.00
7333;BME280;3707;43.618;25.342;2024-03-23T06:33:15;100225.19;;;9.66;100.00
7333;BME280;3707;43.618;25.342;2024-03-23T06:35:42;100227.31;;;9.86;99.96
7333;BME280;3707;43.618;25.342;2024-03-23T06:38:08;100201.28;;;9.79;100.00
7333;BME280;3707;43.618;25.342;2024-03-23T06:40:37;100159.84;;;9.79;99.80
7333;BME280;3707;43.618;25.342;2024-03-23T06:43:03;100228.66;;;10.11;100.00
7333;BME280;3707;43.618;25.342;2024-03-23T06:45:31;100202.41;;;9.93;100.00
7333;BME280;3707;43.618;25.342;2024-03-23T06:47:56;100231.66;;;10.31;100.00
7333;BME280;3707;43.618;25.342;2024-03-23T06:50:24;100222.41;;;10.43;99.74
7333;BME280;3707;43.618;25.342;2024-03-23T06:52:50;100141.19;;;9.95;100.00
7333;BME280;3707;43.618;25.342;2024-03-23T06:55:17;100229.34;;;10.44;100.00
7333;BME280;3707;43.618;25.342;2024-03-23T06:57:44;100229.44;;;10.51;100.00
7333;BME280;3707;43.618;25.342;2024-03-23T07:00:12;100228.84;;;10.67;98.41
7333;BME280;3707;43.618;25.342;2024-03-23T07:02:39;100226.66;;;10.91;100.00
7333;BME280;3707;43.618;25.342;2024-03-23T07:05:06;100222.56;;;11.07;98.10
7333;BME280;3707;43.618;25.342;2024-03-23T07:07:32;100220.13;;;11.17;94.54
7333;BME280;3707;43.618;25.342;2024-03-23T07:09:59;100218.53;;;11.25;92.50
7333;BME280;3707;43.618;25.342;2024-03-23T07:12:24;100208.41;;;11.43;93.94
7333;BME280;3707;43.618;25.342;2024-03-23T07:14:52;100215.53;;;11.58;92.07
7333;BME280;3707;43.618;25.342;2024-03-23T07:17:18;100211.38;;;11.71;87.53
7333;BME280;3707;43.618;25.342;2024-03-23T07:19:46;100217.63;;;11.85;86.93
7333;BME280;3707;43.618;25.342;2024-03-23T07:22:12;100188.13;;;11.81;86.67
7333;BME280;3707;43.618;25.342;2024-03-23T07:24:40;100215.41;;;12.18;83.74
7333;BME280;3707;43.618;25.342;2024-03-23T07:27:05;100214.44;;;12.10;82.00
7333;BME280;3707;43.618;25.342;2024-03-23T07:29:35;100217.84;;;12.06;82.03
7333;BME280;3707;43.618;25.342;2024-03-23T07:32:04;100208.50;;;12.22;81.61
7333;BME280;3707;43.618;25.342;2024-03-23T07:34:29;100214.66;;;12.30;80.58
7333;BME280;3707;43.618;25.342;2024-03-23T07:36:56;100212.97;;;12.33;78.90
7333;BME280;3707;43.618;25.342;2024-03-23T07:39:22;100206.75;;;12.21;78.41
7333;BME280;3707;43.618;25.342;2024-03-23T07:41:50;100217.19;;;12.22;76.49
7333;BME280;3707;43.618;25.342;2024-03-23T07:44:15;100192.84;;;12.17;76.10
7333;BME280;3707;43.618;25.342;2024-03-23T07:46:42;100221.56;;;12.26;73.41
7333;BME280;3707;43.618;25.342;2024-03-23T07:49:09;100211.28;;;12.38;72.38
7333;BME280;3707;43.618;25.342;2024-03-23T07:51:36;100214.81;;;12.43;72.99
7333;BME280;3707;43.618;25.342;2024-03-23T07:54:04;100167.88;;;12.31;70.57
7333;BME280;3707;43.618;25.342;2024-03-23T07:56:32;100192.34;;;12.53;70.01
7333;BME280;3707;43.618;25.342;2024-03-23T07:58:58;100214.19;;;12.72;68.95
7333;BME280;3707;43.618;25.342;2024-03-23T08:01:24;100217.75;;;12.84;68.79
7333;BME280;3707;43.618;25.342;2024-03-23T08:03:50;100188.31;;;12.90;67.43
7333;BME280;3707;43.618;25.342;2024-03-23T08:06:19;100210.25;;;13.22;66.89
7333;BME280;3707;43.618;25.342;2024-03-23T08:08:47;100190.28;;;13.24;66.95
7333;BME280;3707;43.618;25.342;2024-03-23T08:11:14;100158.13;;;13.16;66.09
7333;BME280;3707;43.618;25.342;2024-03-23T08:13:41;100207.84;;;13.54;66.60
7333;BME280;3707;43.618;25.342;2024-03-23T08:16:08;100047.63;;;12.64;64.71
7333;BME280;3707;43.618;25.342;2024-03-23T08:18:34;100208.75;;;13.70;63.94
7333;BME280;3707;43.618;25.342;2024-03-23T08:21:02;100165.28;;;13.57;64.42
7333;BME280;3707;43.618;25.342;2024-03-23T08:23:31;100205.34;;;13.83;63.63
7333;BME280;3707;43.618;25.342;2024-03-23T08:25:59;100204.56;;;14.01;63.18
7333;BME280;3707;43.618;25.342;2024-03-23T08:28:25;100148.00;;;13.81;62.25
7333;BME280;3707;43.618;25.342;2024-03-23T08:30:53;100206.34;;;14.27;62.08
7333;BME280;3707;43.618;25.342;2024-03-23T08:33:19;100199.38;;;14.22;61.31
7333;BME280;3707;43.618;25.342;2024-03-23T08:35:53;100201.97;;;14.23;61.71
7333;BME280;3707;43.618;25.342;2024-03-23T08:38:19;100175.03;;;14.14;61.27
7333;BME280;3707;43.618;25.342;2024-03-23T08:40:47;100195.84;;;13.99;62.52
7333;BME280;3707;43.618;25.342;2024-03-23T08:43:13;100172.41;;;14.03;63.53
7333;BME280;3707;43.618;25.342;2024-03-23T08:45:40;100182.88;;;14.18;61.61
7333;BME280;3707;43.618;25.342;2024-03-23T08:48:06;100110.69;;;13.87;61.99
7333;BME280;3707;43.618;25.342;2024-03-23T08:50:34;100194.25;;;14.51;62.33
7333;BME280;3707;43.618;25.342;2024-03-23T08:53:01;100184.69;;;14.50;60.94
7333;BME280;3707;43.618;25.342;2024-03-23T08:55:27;100181.22;;;14.61;60.41
7333;BME280;3707;43.618;25.342;2024-03-23T08:57:55;100169.03;;;14.65;60.33
7333;BME280;3707;43.618;25.342;2024-03-23T09:00:21;100163.78;;;14.74;60.86
7333;BME280;3707;43.618;25.342;2024-03-23T09:02:48;100167.28;;;14.79;59.89
7333;BME280;3707;43.618;25.342;2024-03-23T09:05:14;100167.25;;;14.99;59.46
7333;BME280;3707;43.618;25.342;2024-03-23T09:07:40;100169.00;;;14.95;59.87
7333;BME280;3707;43.618;25.342;2024-03-23T09:10:07;100158.53;;;15.03;59.67
7333;BME280;3707;43.618;25.342;2024-03-23T09:12:34;100135.94;;;14.94;58.91
7333;BME280;3707;43.618;25.342;2024-03-23T09:15:01;100159.38;;;15.20;60.98
7333;BME280;3707;43.618;25.342;2024-03-23T09:17:28;100152.38;;;15.28;58.65
7333;BME280;3707;43.618;25.342;2024-03-23T09:19:54;100143.63;;;15.47;57.17
7333;BME280;3707;43.618;25.342;2024-03-23T09:22:21;100141.84;;;15.64;45.07
7333;BME280;3707;43.618;25.342;2024-03-23T09:24:46;100121.66;;;15.89;44.79
7333;BME280;3707;43.618;25.342;2024-03-23T09:27:13;100101.53;;;16.05;42.53
7333;BME280;3707;43.618;25.342;2024-03-23T09:29:39;100127.44;;;16.35;42.97
7333;BME280;3707;43.618;25.342;2024-03-23T09:32:07;100114.41;;;16.27;47.75
7333;BME280;3707;43.618;25.342;2024-03-23T09:34:34;100123.00;;;16.45;41.32
7333;BME280;3707;43.618;25.342;2024-03-23T09:37:01;100126.41;;;16.59;40.53
7333;BME280;3707;43.618;25.342;2024-03-23T09:39:26;100087.16;;;16.54;41.21
7333;BME280;3707;43.618;25.342;2024-03-23T09:41:56;100113.88;;;16.91;39.90
7333;BME280;3707;43.618;25.342;2024-03-23T09:44:23;100111.19;;;17.00;39.67
7333;BME280;3707;43.618;25.342;2024-03-23T09:46:51;100095.41;;;17.05;39.81
7333;BME280;3707;43.618;25.342;2024-03-23T09:49:18;100115.31;;;17.19;39.81
7333;BME280;3707;43.618;25.342;2024-03-23T09:51:45;100102.53;;;16.94;37.65
7333;BME280;3707;43.618;25.342;2024-03-23T09:54:11;100106.78;;;17.02;37.60
7333;BME280;3707;43.618;25.342;2024-03-23T09:56:38;100044.94;;;16.88;37.12
7333;BME280;3707;43.618;25.342;2024-03-23T09:59:04;100078.72;;;17.13;37.64
7333;BME280;3707;43.618;25.342;2024-03-23T10:01:32;100088.31;;;17.13;36.91
7333;BME280;3707;43.618;25.342;2024-03-23T10:03:57;100011.78;;;16.88;39.18
7333;BME280;3707;43.618;25.342;2024-03-23T10:06:26;100087.19;;;17.35;37.46
7333;BME280;3707;43.618;25.342;2024-03-23T10:08:52;100080.16;;;17.39;35.83
7333;BME280;3707;43.618;25.342;2024-03-23T10:11:20;100059.19;;;17.39;39.67
7333;BME280;3707;43.618;25.342;2024-03-23T10:13:47;100062.53;;;17.48;36.54
7333;BME280;3707;43.618;25.342;2024-03-23T10:16:21;100043.50;;;17.35;37.23
7333;BME280;3707;43.618;25.342;2024-03-23T10:18:47;100053.75;;;17.52;37.49
7333;BME280;3707;43.618;25.342;2024-03-23T10:21:15;100064.88;;;17.71;37.65
7333;BME280;3707;43.618;25.342;2024-03-23T10:23:43;100010.31;;;17.34;37.22
7333;BME280;3707;43.618;25.342;2024-03-23T10:26:16;100028.47;;;17.48;37.07
7333;BME280;3707;43.618;25.342;2024-03-23T10:29:00;100031.06;;;17.50;38.37
7333;BME280;3707;43.618;25.342;2024-03-23T10:31:27;100035.31;;;17.60;38.45
7333;BME280;3707;43.618;25.342;2024-03-23T10:33:53;100041.28;;;17.71;38.06
7333;BME280;3707;43.618;25.342;2024-03-23T10:36:21;100004.72;;;17.62;37.71
7333;BME280;3707;43.618;25.342;2024-03-23T10:38:50;100032.16;;;17.96;37.60
7333;BME280;3707;43.618;25.342;2024-03-23T10:41:17;99995.66;;;17.81;36.99
7333;BME280;3707;43.618;25.342;2024-03-23T10:43:47;100026.03;;;17.96;38.43
7333;BME280;3707;43.618;25.342;2024-03-23T10:46:14;99980.81;;;17.80;35.91
7333;BME280;3707;43.618;25.342;2024-03-23T10:48:40;100014.59;;;18.01;37.25
7333;BME280;3707;43.618;25.342;2024-03-23T10:51:09;99998.88;;;17.98;39.49
7333;BME280;3707;43.618;25.342;2024-03-23T10:53:35;99997.22;;;17.94;38.20
7333;BME280;3707;43.618;25.342;2024-03-23T10:56:06;99995.13;;;18.14;37.89
7333;BME280;3707;43.618;25.342;2024-03-23T10:58:46;99989.84;;;18.16;36.30
7333;BME280;3707;43.618;25.342;2024-03-23T11:01:14;99987.06;;;18.25;36.64
7333;BME280;3707;43.618;25.342;2024-03-23T11:03:44;99935.53;;;18.19;36.68
7333;BME280;3707;43.618;25.342;2024-03-23T11:06:35;99981.53;;;18.40;37.30
7333;BME280;3707;43.618;25.342;2024-03-23T11:09:01;99959.94;;;18.24;36.42
7333;BME280;3707;43.618;25.342;2024-03-23T11:11:29;99955.38;;;18.36;35.81
7333;BME280;3707;43.618;25.342;2024-03-23T11:13:58;99956.66;;;18.13;35.36
7333;BME280;3707;43.618;25.342;2024-03-23T11:16:26;99957.00;;;18.41;35.60
7333;BME280;3707;43.618;25.342;2024-03-23T11:18:53;99910.50;;;18.02;37.09
7333;BME280;3707;43.618;25.342;2024-03-23T11:21:51;99951.66;;;18.46;35.48
7333;BME280;3707;43.618;25.342;2024-03-23T11:24:17;99918.03;;;18.20;36.02
7333;BME280;3707;43.618;25.342;2024-03-23T11:26:46;99935.38;;;18.28;36.50
7333;BME280;3707;43.618;25.342;2024-03-23T11:29:13;99946.53;;;18.40;37.06
7333;BME280;3707;43.618;25.342;2024-03-23T11:31:45;99920.28;;;18.40;35.68
7333;BME280;3707;43.618;25.342;2024-03-23T11:34:11;99933.91;;;18.61;36.26
7333;BME280;3707;43.618;25.342;2024-03-23T11:36:38;99930.56;;;18.52;35.75
7333;BME280;3707;43.618;25.342;2024-03-23T11:39:11;99923.53;;;18.54;35.62
7333;BME280;3707;43.618;25.342;2024-03-23T11:41:47;99801.22;;;17.99;35.46
7333;BME280;3707;43.618;25.342;2024-03-23T11:44:20;99873.59;;;18.57;35.70
7333;BME280;3707;43.618;25.342;2024-03-23T11:46:48;99823.25;;;18.33;39.60
7333;BME280;3707;43.618;25.342;2024-03-23T11:49:22;99902.41;;;19.01;36.18
7333;BME280;3707;43.618;25.342;2024-03-23T11:51:49;99891.91;;;19.01;35.09
7333;BME280;3707;43.618;25.342;2024-03-23T11:54:15;99893.41;;;19.11;35.59
7333;BME280;3707;43.618;25.342;2024-03-23T11:56:55;99883.00;;;19.07;35.43
7333;BME280;3707;43.618;25.342;2024-03-23T11:59:32;99882.91;;;19.11;36.91
7333;BME280;3707;43.618;25.342;2024-03-23T12:01:59;99875.59;;;19.24;35.72
7333;BME280;3707;43.618;25.342;2024-03-23T12:04:26;99871.63;;;19.06;34.01
7333;BME280;3707;43.618;25.342;2024-03-23T12:07:11;99860.84;;;19.17;36.34
7333;BME280;3707;43.618;25.342;2024-03-23T12:09:37;99862.53;;;19.19;34.03
7333;BME280;3707;43.618;25.342;2024-03-23T12:12:11;99861.09;;;19.06;34.54
7333;BME280;3707;43.618;25.342;2024-03-23T12:14:41;99853.75;;;19.22;34.60
7333;BME280;3707;43.618;25.342;2024-03-23T12:17:11;99844.38;;;19.10;34.14
7333;BME280;3707;43.618;25.342;2024-03-23T12:19:38;99821.41;;;18.80;34.90
7333;BME280;3707;43.618;25.342;2024-03-23T12:22:04;99810.16;;;18.75;34.87
7333;BME280;3707;43.618;25.342;2024-03-23T12:24:32;99815.00;;;18.93;34.72
7333;BME280;3707;43.618;25.342;2024-03-23T12:27:00;99813.19;;;18.95;34.79
7333;BME280;3707;43.618;25.342;2024-03-23T12:29:30;99837.09;;;19.21;34.00
7333;BME280;3707;43.618;25.342;2024-03-23T12:31:59;99836.84;;;19.30;34.56
7333;BME280;3707;43.618;25.342;2024-03-23T12:34:26;99808.97;;;19.25;34.61
7333;BME280;3707;43.618;25.342;2024-03-23T12:36:51;99820.97;;;19.37;33.84
7333;BME280;3707;43.618;25.342;2024-03-23T12:39:18;99817.91;;;19.18;34.50
7333;BME280;3707;43.618;25.342;2024-03-23T12:41:44;99817.81;;;19.22;33.94
7333;BME280;3707;43.618;25.342;2024-03-23T12:44:11;99809.44;;;19.41;33.72
7333;BME280;3707;43.618;25.342;2024-03-23T12:46:38;99810.50;;;19.33;33.73
7333;BME280;3707;43.618;25.342;2024-03-23T12:49:06;99810.97;;;19.15;33.76
7333;BME280;3707;43.618;25.342;2024-03-23T12:51:32;99805.03;;;19.06;34.39
7333;BME280;3707;43.618;25.342;2024-03-23T12:53:59;99794.50;;;19.07;35.83
7333;BME280;3707;43.618;25.342;2024-03-23T12:56:25;99787.88;;;19.26;34.14
7333;BME280;3707;43.618;25.342;2024-03-23T12:58:53;99773.41;;;19.10;34.04
7333;BME280;3707;43.618;25.342;2024-03-23T13:01:20;99783.03;;;19.11;34.15
7333;BME280;3707;43.618;25.342;2024-03-23T13:03:49;99765.78;;;19.00;34.30
7333;BME280;3707;43.618;25.342;2024-03-23T13:06:15;99781.81;;;19.24;34.22
7333;BME280;3707;43.618;25.342;2024-03-23T13:08:44;99777.34;;;19.28;33.91
7333;BME280;3707;43.618;25.342;2024-03-23T13:11:10;99773.75;;;19.30;34.75
7333;BME280;3707;43.618;25.342;2024-03-23T13:13:36;99776.47;;;19.27;34.62
7333;BME280;3707;43.618;25.342;2024-03-23T13:16:03;99767.34;;;19.08;34.49
7333;BME280;3707;43.618;25.342;2024-03-23T13:18:31;99762.53;;;19.24;34.12
7333;BME280;3707;43.618;25.342;2024-03-23T13:20:59;99765.78;;;19.33;35.14
7333;BME280;3707;43.618;25.342;2024-03-23T13:23:26;99745.03;;;19.23;33.79
7333;BME280;3707;43.618;25.342;2024-03-23T13:25:52;99749.28;;;19.28;33.83
7333;BME280;3707;43.618;25.342;2024-03-23T13:28:19;99735.84;;;19.05;34.36
7333;BME280;3707;43.618;25.342;2024-03-23T13:30:50;99745.09;;;19.21;34.93
7333;BME280;3707;43.618;25.342;2024-03-23T13:33:17;99745.69;;;19.33;34.17
7333;BME280;3707;43.618;25.342;2024-03-23T13:35:49;99746.13;;;19.50;34.47
7333;BME280;3707;43.618;25.342;2024-03-23T13:38:17;99747.72;;;19.55;34.13
7333;BME280;3707;43.618;25.342;2024-03-23T13:40:51;99742.34;;;19.60;34.53
7333;BME280;3707;43.618;25.342;2024-03-23T13:43:18;99736.44;;;19.52;34.34
7333;BME280;3707;43.618;25.342;2024-03-23T13:45:44;99713.81;;;19.46;33.74
7333;BME280;3707;43.618;25.342;2024-03-23T13:48:11;99730.28;;;19.53;34.42
7333;BME280;3707;43.618;25.342;2024-03-23T13:50:37;99736.75;;;19.38;34.35
7333;BME280;3707;43.618;25.342;2024-03-23T13:53:04;99695.06;;;19.24;34.32
7333;BME280;3707;43.618;25.342;2024-03-23T13:55:31;99729.47;;;19.51;34.82
7333;BME280;3707;43.618;25.342;2024-03-23T13:57:58;99699.09;;;19.38;33.42